Time;durP1;ratioP1;P1;durP2;ratioP2;P2;SDS_P1;SDS_P2;PMS_P1;PMS_P2;Temp;Humidity;BMP_temperature;BMP_pressure;BME280_temperature;BME280_humidity;BME280_pressure;Samples;Min_cycle;Max_cycle;Signal;HPM_P1;HPM_P2
2023/08/11 00:00:08;;;;;;;0.00;0.00;;;;;;;17.44;56.58;100392.84;5298985;27;34170;-84
2023/08/11 00:02:38;;;;;;;0.10;0.10;;;;;;;17.39;56.92;100398.47;5298462;27;33809;-84
2023/08/11 00:05:08;;;;;;;0.10;0.10;;;;;;;17.45;56.86;100402.56;5298980;27;33442;-84
2023/08/11 00:07:35;;;;;;;0.75;0.68;;;;;;;17.34;57.32;100392.56;5298953;27;33688;-84
2023/08/11 00:10:04;;;;;;;0.55;0.32;;;;;;;17.35;57.11;100388.94;5298598;27;33493;-84
2023/08/11 00:12:32;;;;;;;0.00;0.00;;;;;;;17.28;57.35;100392.06;5298483;27;33604;-84
2023/08/11 00:15:00;;;;;;;0.30;0.30;;;;;;;17.15;57.73;100394.66;5298683;27;31951;-84
2023/08/11 00:17:29;;;;;;;0.10;0.10;;;;;;;17.24;57.86;100390.56;5298632;27;33377;-84
2023/08/11 00:19:57;;;;;;;0.10;0.10;;;;;;;17.20;57.70;100397.91;5298716;27;32567;-84
2023/08/11 00:22:25;;;;;;;0.10;0.10;;;;;;;17.14;57.73;100399.16;5298777;27;33612;-84
2023/08/11 00:24:52;;;;;;;0.52;0.50;;;;;;;17.15;57.80;100390.19;5298213;27;33391;-84
2023/08/11 00:27:20;;;;;;;0.00;0.00;;;;;;;17.10;57.83;100394.09;5298578;27;33883;-84
2023/08/11 00:29:48;;;;;;;0.30;0.30;;;;;;;17.09;57.59;100395.00;5298783;27;34831;-85
2023/08/11 00:32:15;;;;;;;0.05;0.05;;;;;;;17.23;57.31;100396.84;5298457;27;32313;-85
2023/08/11 00:34:43;;;;;;;0.20;0.20;;;;;;;17.25;57.07;100394.94;5298253;27;34093;-85
2023/08/11 00:37:11;;;;;;;1.10;0.95;;;;;;;17.01;57.73;100391.97;5279796;27;34371;-87
2023/08/11 00:39:38;;;;;;;0.20;0.20;;;;;;;17.02;58.03;100402.53;5298370;27;34399;-86
2023/08/11 00:42:06;;;;;;;0.15;0.15;;;;;;;16.82;58.52;100400.22;5298117;27;34048;-86
2023/08/11 00:44:34;;;;;;;1.83;0.62;;;;;;;16.81;58.74;100398.53;5279616;27;33233;-87
2023/08/11 00:47:02;;;;;;;0.10;0.00;;;;;;;16.53;59.19;100391.28;5279727;27;34038;-86
2023/08/11 00:49:30;;;;;;;0.10;0.05;;;;;;;16.30;60.22;100384.62;5262575;27;33919;-86
2023/08/11 00:51:57;;;;;;;0.45;0.45;;;;;;;16.49;59.50;100385.25;5298295;27;34545;-86
2023/08/11 00:54:26;;;;;;;0.47;0.40;;;;;;;16.59;59.06;100386.41;5279805;27;33142;-86
2023/08/11 00:56:54;;;;;;;0.10;0.10;;;;;;;16.53;59.45;100386.78;5298106;27;34599;-86
2023/08/11 00:59:23;;;;;;;0.57;0.52;;;;;;;16.58;59.35;100379.37;5297783;27;33379;-86
2023/08/11 01:01:50;;;;;;;0.62;0.62;;;;;;;16.69;58.92;100388.53;5298341;27;33523;-86
2023/08/11 01:04:19;;;;;;;1.08;0.52;;;;;;;16.75;58.72;100389.06;5298098;27;33419;-86
2023/08/11 01:06:51;;;;;;;0.22;0.22;;;;;;;16.76;58.95;100382.81;5298353;27;33367;-86
2023/08/11 01:09:35;;;;;;;0.62;0.17;;;;;;;16.75;58.50;100386.37;5298044;27;33958;-84
2023/08/11 01:12:32;;;;;;;0.20;0.20;;;;;;;16.85;58.08;100376.03;5299561;27;33906;-84
2023/08/11 01:15:17;;;;;;;0.77;0.43;;;;;;;16.89;57.93;100378.41;5279928;27;33387;-86
2023/08/11 01:17:45;;;;;;;0.17;0.17;;;;;;;16.74;57.92;100379.34;5297920;27;32885;-84
2023/08/11 01:20:16;;;;;;;0.00;0.00;;;;;;;16.78;57.71;100370.22;5297722;27;33596;-84
2023/08/11 01:22:46;;;;;;;1.02;0.32;;;;;;;16.79;57.64;100371.94;5297077;27;33307;-84
2023/08/11 01:25:15;;;;;;;1.20;0.60;;;;;;;16.75;57.84;100364.19;5279577;27;33096;-85
2023/08/11 01:27:44;;;;;;;0.70;0.70;;;;;;;16.81;57.93;100369.19;5297877;27;34644;-84
2023/08/11 01:30:12;;;;;;;3.60;0.52;;;;;;;16.78;58.27;100364.03;5297933;27;34035;-84
2023/08/11 01:32:40;;;;;;;0.00;0.00;;;;;;;16.85;58.15;100368.91;5297409;27;32903;-84
2023/08/11 01:35:09;;;;;;;0.45;0.45;;;;;;;16.87;58.03;100368.81;5297667;27;33642;-84
2023/08/11 01:37:37;;;;;;;0.20;0.20;;;;;;;16.90;58.23;100379.28;5297143;27;32796;-84
2023/08/11 01:40:11;;;;;;;0.00;0.00;;;;;;;16.96;57.88;100372.72;5297909;27;33811;-84
2023/08/11 01:42:40;;;;;;;0.00;0.00;;;;;;;16.96;57.92;100373.59;5296815;27;33238;-85
2023/08/11 01:45:21;;;;;;;0.00;0.00;;;;;;;16.97;58.14;100380.63;5298084;27;33207;-84
2023/08/11 01:47:49;;;;;;;0.75;0.75;;;;;;;16.98;57.76;100376.16;5296950;27;34513;-84
2023/08/11 01:50:18;;;;;;;0.22;0.10;;;;;;;16.83;58.27;100372.59;5297535;27;34476;-84
2023/08/11 01:52:47;;;;;;;0.65;0.35;;;;;;;16.77;58.52;100376.50;5297993;27;34633;-84
2023/08/11 01:55:29;;;;;;;0.40;0.35;;;;;;;16.96;57.99;100368.25;5279880;27;32903;-84
2023/08/11 01:57:58;;;;;;;0.65;0.35;;;;;;;16.93;58.08;100373.75;5296666;27;32532;-84
2023/08/11 02:00:28;;;;;;;0.28;0.28;;;;;;;16.96;58.09;100378.06;5297656;27;33701;-83
2023/08/11 02:02:57;;;;;;;0.13;0.13;;;;;;;16.97;57.97;100375.28;5297296;27;33769;-83
2023/08/11 02:05:27;;;;;;;0.00;0.00;;;;;;;16.96;57.88;100378.91;5279591;27;33007;-83
2023/08/11 02:07:55;;;;;;;0.50;0.50;;;;;;;16.94;58.25;100386.13;5297556;27;33808;-84
2023/08/11 02:10:23;;;;;;;0.77;0.45;;;;;;;16.97;57.89;100388.63;5279090;27;33115;-83
2023/08/11 02:12:51;;;;;;;0.00;0.00;;;;;;;16.80;58.36;100391.44;5279161;27;32500;-83
2023/08/11 02:15:19;;;;;;;0.20;0.20;;;;;;;16.82;58.48;100392.22;5296850;27;33495;-84
2023/08/11 02:17:48;;;;;;;0.10;0.10;;;;;;;16.74;58.81;100384.69;5297345;27;34005;-83
2023/08/11 02:20:22;;;;;;;0.45;0.20;;;;;;;16.89;58.47;100380.22;5297432;27;33872;-83
2023/08/11 02:22:52;;;;;;;0.10;0.10;;;;;;;16.76;58.65;100384.56;5296430;27;34786;-84
2023/08/11 02:25:21;;;;;;;0.00;0.00;;;;;;;16.76;58.45;100387.25;5296819;27;32742;-83
2023/08/11 02:27:50;;;;;;;0.00;0.00;;;;;;;16.72;58.45;100383.94;5296995;27;33247;-83
2023/08/11 02:30:18;;;;;;;0.10;0.10;;;;;;;16.61;58.91;100387.19;5296935;27;33265;-83
2023/08/11 02:32:46;;;;;;;0.73;0.57;;;;;;;16.91;57.77;100381.00;5297032;27;34344;-83
2023/08/11 02:35:17;;;;;;;0.40;0.37;;;;;;;16.73;58.66;100387.44;5279044;27;33646;-83
2023/08/11 02:37:45;;;;;;;0.30;0.22;;;;;;;16.61;59.18;100389.84;5298253;27;32705;-84
2023/08/11 02:40:14;;;;;;;0.30;0.30;;;;;;;16.41;59.94;100387.50;5298436;27;33928;-84
2023/08/11 02:42:45;;;;;;;0.32;0.32;;;;;;;16.47;59.79;100387.13;5279985;27;32110;-83
2023/08/11 02:45:13;;;;;;;0.00;0.00;;;;;;;16.51;59.67;100388.66;5298223;27;32959;-83
2023/08/11 02:47:42;;;;;;;0.28;0.05;;;;;;;16.36;60.17;100390.44;5298001;27;32810;-82
2023/08/11 02:50:10;;;;;;;0.10;0.10;;;;;;;16.56;59.09;100391.94;5298125;27;33914;-82
2023/08/11 02:52:38;;;;;;;0.28;0.28;;;;;;;16.47;59.58;100391.59;5279779;27;32542;-82
2023/08/11 02:55:07;;;;;;;0.30;0.30;;;;;;;16.55;59.25;100390.22;5297842;27;33409;-82
2023/08/11 02:57:35;;;;;;;0.00;0.00;;;;;;;16.46;59.71;100390.75;5297677;27;32525;-82
2023/08/11 03:00:12;;;;;;;0.00;0.00;;;;;;;16.34;60.05;100391.50;5260652;27;34811;-82
2023/08/11 03:02:41;;;;;;;0.35;0.35;;;;;;;16.41;59.91;100392.84;5281028;27;33525;-82
2023/08/11 03:05:10;;;;;;;0.08;0.08;;;;;;;16.45;59.71;100397.03;5279493;27;32584;-82
2023/08/11 03:07:38;;;;;;;0.68;0.50;;;;;;;16.43;59.73;100401.62;5297953;27;33111;-82
2023/08/11 03:10:07;;;;;;;0.32;0.32;;;;;;;16.83;58.16;100399.28;5298338;27;34732;-82
2023/08/11 03:12:36;;;;;;;1.02;0.85;;;;;;;16.54;58.90;100403.66;5279777;27;34024;-82
2023/08/11 03:15:05;;;;;;;0.43;0.22;;;;;;;16.23;60.00;100407.22;5298293;27;33330;-82
2023/08/11 03:17:35;;;;;;;0.32;0.32;;;;;;;16.11;60.57;100414.13;5298182;27;35196;-82
2023/08/11 03:20:12;;;;;;;0.00;0.00;;;;;;;16.06;60.79;100405.53;5280201;27;33246;-82
2023/08/11 03:22:42;;;;;;;0.17;0.17;;;;;;;16.02;60.72;100402.19;5279931;27;33967;-82
2023/08/11 03:25:11;;;;;;;3.85;0.62;;;;;;;15.95;60.97;100410.59;5279525;27;33007;-83
2023/08/11 03:27:41;;;;;;;0.00;0.00;;;;;;;16.04;60.42;100410.94;5298198;27;33855;-83
2023/08/11 03:30:11;;;;;;;0.30;0.30;;;;;;;16.07;60.57;100402.78;5298491;27;33194;-82
2023/08/11 03:32:39;;;;;;;0.43;0.28;;;;;;;16.16;60.21;100411.19;5261565;27;34546;-82
2023/08/11 03:35:08;;;;;;;0.13;0.13;;;;;;;16.09;60.40;100419.53;5298422;27;33520;-83
2023/08/11 03:37:37;;;;;;;0.20;0.20;;;;;;;15.87;61.52;100419.87;5298075;27;34250;-82
2023/08/11 03:40:09;;;;;;;0.03;0.03;;;;;;;15.93;61.40;100410.69;5298008;27;32871;-82
2023/08/11 03:42:37;;;;;;;;;;;;;;;15.88;61.40;100416.28;5298680;27;33419;-82
2023/08/11 03:45:05;;;;;;;0.95;0.43;;;;;;;15.93;61.10;100412.50;5297975;27;33040;-83
2023/08/11 03:47:33;;;;;;;0.10;0.10;;;;;;;15.79;61.50;100411.44;5280255;27;34395;-82
2023/08/11 03:50:02;;;;;;;0.30;0.30;;;;;;;15.68;61.85;100413.00;5297924;27;33949;-83
2023/08/11 03:52:30;;;;;;;2.62;1.65;;;;;;;15.49;62.50;100413.13;5297937;27;33581;-82
2023/08/11 03:54:58;;;;;;;0.95;0.30;;;;;;;15.57;62.34;100418.84;5297886;27;33472;-82
2023/08/11 03:57:26;;;;;;;0.80;0.55;;;;;;;15.76;61.76;100427.63;5298265;27;33934;-82
2023/08/11 03:59:54;;;;;;;0.15;0.05;;;;;;;15.66;61.99;100421.06;5297795;27;33304;-83
2023/08/11 04:02:22;;;;;;;0.10;0.10;;;;;;;15.67;62.19;100424.59;5298046;27;34618;-83
2023/08/11 04:04:49;;;;;;;0.10;0.10;;;;;;;15.72;62.03;100427.88;5297865;27;32259;-83
2023/08/11 04:07:17;;;;;;;0.50;0.50;;;;;;;15.86;61.94;100428.81;5297844;27;33408;-83
2023/08/11 04:09:46;;;;;;;0.62;0.62;;;;;;;15.91;62.17;100427.72;5297815;27;33085;-83
2023/08/11 04:12:14;;;;;;;0.52;0.40;;;;;;;16.03;61.86;100429.66;5297290;27;34100;-83
2023/08/11 04:14:41;;;;;;;0.30;0.30;;;;;;;16.17;60.96;100431.56;5297860;27;34105;-82
2023/08/11 04:17:13;;;;;;;0.57;0.57;;;;;;;16.17;61.43;100437.75;5297613;27;33234;-82
2023/08/11 04:19:41;;;;;;;0.60;0.60;;;;;;;16.21;61.68;100439.28;5298012;27;32791;-83
2023/08/11 04:22:09;;;;;;;0.15;0.15;;;;;;;16.22;61.72;100443.66;5297968;27;33786;-84
2023/08/11 04:24:37;;;;;;;1.85;0.47;;;;;;;16.37;61.43;100444.59;5298170;27;33449;-83
2023/08/11 04:27:05;;;;;;;0.65;0.40;;;;;;;16.41;61.38;100448.81;5297688;27;32503;-85
2023/08/11 04:29:32;;;;;;;0.10;0.10;;;;;;;16.51;61.70;100442.00;5297568;27;34707;-84
2023/08/11 04:32:04;;;;;;;2.10;0.40;;;;;;;16.57;61.57;100448.81;5297582;27;33528;-83
2023/08/11 04:34:33;;;;;;;0.15;0.15;;;;;;;16.65;61.34;100438.53;5279753;27;32775;-83
2023/08/11 04:37:04;;;;;;;0.70;0.60;;;;;;;16.72;60.91;100447.06;5279656;27;34322;-84
2023/08/11 04:39:36;;;;;;;0.40;0.40;;;;;;;16.80;60.81;100444.78;5297605;27;34682;-84
2023/08/11 04:42:05;;;;;;;0.57;0.57;;;;;;;16.99;60.22;100442.75;5298183;27;33252;-83
2023/08/11 04:44:34;;;;;;;0.10;0.10;;;;;;;17.07;59.74;100445.81;5297562;27;32460;-83
2023/08/11 04:47:01;;;;;;;0.00;0.00;;;;;;;17.17;58.89;100445.25;5297758;27;33456;-83
2023/08/11 04:49:29;;;;;;;0.15;0.15;;;;;;;17.56;57.41;100453.47;5297247;27;34388;-83
2023/08/11 04:51:57;;;;;;;0.00;0.00;;;;;;;17.80;56.91;100455.59;5297234;27;33629;-83
2023/08/11 04:54:27;;;;;;;0.20;0.10;;;;;;;17.54;58.06;100460.72;5278651;27;32435;-83
2023/08/11 04:56:55;;;;;;;0.10;0.10;;;;;;;17.44;58.15;100464.94;5297141;27;33273;-83
2023/08/11 04:59:23;;;;;;;0.28;0.28;;;;;;;17.42;58.07;100461.47;5297054;27;33984;-83
2023/08/11 05:01:50;;;;;;;0.60;0.50;;;;;;;17.67;57.04;100456.34;5297298;27;32716;-83
2023/08/11 05:04:18;;;;;;;0.05;0.05;;;;;;;17.70;57.31;100457.09;5299377;27;33088;-83
2023/08/11 05:06:46;;;;;;;0.65;0.65;;;;;;;17.83;57.09;100466.09;5297200;27;34179;-83
2023/08/11 05:09:13;;;;;;;1.08;0.52;;;;;;;17.81;56.99;100462.69;5297323;27;33350;-83
2023/08/11 05:11:41;;;;;;;0.47;0.43;;;;;;;18.13;55.92;100472.13;5297663;27;32481;-83
2023/08/11 05:14:09;;;;;;;0.40;0.40;;;;;;;18.44;55.45;100467.50;5279274;27;32932;-83
2023/08/11 05:16:36;;;;;;;0.20;0.20;;;;;;;18.43;55.61;100477.34;5297340;27;34385;-83
2023/08/11 05:19:04;;;;;;;0.20;0.20;;;;;;;18.66;55.03;100477.63;5279121;27;33075;-83
2023/08/11 05:21:32;;;;;;;0.05;0.05;;;;;;;18.59;54.97;100477.16;5297355;27;33934;-82
2023/08/11 05:24:00;;;;;;;0.13;0.13;;;;;;;18.82;53.86;100477.50;5297126;27;33393;-83
2023/08/11 05:26:28;;;;;;;0.32;0.32;;;;;;;18.91;54.28;100482.22;5297243;27;33693;-82
2023/08/11 05:28:56;;;;;;;0.88;0.47;;;;;;;18.89;53.84;100484.97;5296820;27;34497;-82
2023/08/11 05:31:24;;;;;;;0.65;0.65;;;;;;;19.43;51.73;100481.31;5297187;27;33253;-83
2023/08/11 05:33:52;;;;;;;0.43;0.43;;;;;;;19.52;51.94;100483.38;5297073;27;32007;-83
2023/08/11 05:36:20;;;;;;;0.98;0.73;;;;;;;19.54;51.49;100486.78;5297162;27;32546;-83
2023/08/11 05:38:47;;;;;;;0.95;0.55;;;;;;;19.54;51.94;100486.78;5297018;27;33595;-83
2023/08/11 05:41:15;;;;;;;0.10;0.05;;;;;;;19.28;53.63;100488.59;5279144;27;35088;-83
2023/08/11 05:43:43;;;;;;;0.20;0.20;;;;;;;19.11;53.97;100488.91;5296800;27;33159;-83
2023/08/11 05:46:11;;;;;;;0.20;0.20;;;;;;;19.21;53.31;100487.31;5296936;27;34253;-83
2023/08/11 05:48:38;;;;;;;0.32;0.20;;;;;;;19.51;52.27;100476.28;5297547;27;33514;-83
2023/08/11 05:51:06;;;;;;;0.20;0.20;;;;;;;19.87;51.35;100477.34;5278871;27;32622;-85
2023/08/11 05:53:34;;;;;;;0.17;0.17;;;;;;;19.94;51.72;100471.47;5296921;27;32550;-83
2023/08/11 05:56:02;;;;;;;0.40;0.40;;;;;;;19.84;52.05;100475.75;5259037;27;33199;-82
2023/08/11 05:58:29;;;;;;;0.40;0.40;;;;;;;20.43;50.14;100475.91;5291437;27;32666;-83
2023/08/11 06:00:57;;;;;;;0.32;0.30;;;;;;;20.19;51.19;100483.06;5296481;27;32785;-83
2023/08/11 06:03:29;;;;;;;0.30;0.30;;;;;;;20.16;51.27;100478.78;5296103;27;33250;-82
2023/08/11 06:06:06;;;;;;;;;;;;;;;20.41;51.50;100487.72;5297649;27;34618;-82
2023/08/11 06:08:34;;;;;;;0.43;0.43;;;;;;;20.93;50.30;100483.84;5294005;27;34465;-82
2023/08/11 06:11:02;;;;;;;0.28;0.25;;;;;;;20.85;50.29;100483.59;5277947;27;32335;-83
2023/08/11 06:13:31;;;;;;;0.40;0.40;;;;;;;21.15;50.17;100488.44;5276992;27;33297;-84
2023/08/11 06:16:03;;;;;;;0.10;0.10;;;;;;;21.38;50.09;100489.38;5260822;27;33312;-83
2023/08/11 06:18:49;;;;;;;1.15;0.98;;;;;;;21.16;49.21;100491.00;5260431;27;32971;-83
2023/08/11 06:21:19;;;;;;;1.37;0.82;;;;;;;21.52;49.70;100489.16;5274647;27;32802;-86
2023/08/11 06:23:47;;;;;;;0.30;0.30;;;;;;;21.41;49.38;100489.13;5295045;27;33229;-86
2023/08/11 06:26:14;;;;;;;2.40;0.40;;;;;;;21.71;49.80;100486.72;5297543;27;32752;-87
2023/08/11 06:28:43;;;;;;;0.20;0.13;;;;;;;21.47;49.69;100484.13;5277983;27;34898;-86
2023/08/11 06:31:10;;;;;;;0.37;0.37;;;;;;;21.56;48.47;100487.94;5296870;27;32654;-88
2023/08/11 06:33:40;;;;;;;0.62;0.60;;;;;;;21.68;47.96;100486.97;5275123;27;32201;-86
2023/08/11 06:36:08;;;;;;;1.65;0.30;;;;;;;22.09;48.31;100496.25;5279673;27;33910;-93
2023/08/11 06:38:53;;;;;;;2.25;1.08;;;;;;;22.28;47.54;100492.94;5310884;27;34388;-91
2023/08/11 06:41:24;;;;;;;0.57;0.40;;;;;;;22.51;47.22;100493.75;5296398;27;33050;-91
2023/08/11 06:43:53;;;;;;;0.65;0.65;;;;;;;22.60;46.90;100490.31;5296448;27;33954;-89
2023/08/11 06:46:24;;;;;;;4.60;0.20;;;;;;;22.51;47.09;100496.44;5261211;27;33340;-90
2023/08/11 06:48:53;;;;;;;0.30;0.30;;;;;;;22.61;47.65;100492.00;5296044;27;33505;-88
2023/08/11 06:51:20;;;;;;;1.33;0.75;;;;;;;22.77;47.90;100501.50;5276610;27;33853;-87
2023/08/11 06:53:48;;;;;;;0.10;0.10;;;;;;;23.13;47.12;100492.19;5278242;27;32971;-87
2023/08/11 06:56:16;;;;;;;0.35;0.35;;;;;;;23.30;46.16;100496.97;5279023;27;33796;-87
2023/08/11 06:59:18;;;;;;;0.37;0.37;;;;;;;23.24;47.05;100500.19;5292816;27;32456;-87
2023/08/11 07:01:46;;;;;;;0.10;0.10;;;;;;;23.36;46.91;100501.84;5277236;27;32897;-88
2023/08/11 07:04:16;;;;;;;0.30;0.30;;;;;;;23.46;46.18;100505.47;5277731;27;33564;-87
2023/08/11 07:06:46;;;;;;;0.95;0.57;;;;;;;23.23;46.05;100502.03;5294540;27;33179;-88
2023/08/11 07:09:14;;;;;;;0.82;0.82;;;;;;;23.06;45.62;100508.00;5314114;27;34022;-86
2023/08/11 07:11:42;;;;;;;0.15;0.15;;;;;;;23.14;45.58;100502.81;5261204;27;33537;-86
2023/08/11 07:14:10;;;;;;;0.82;0.28;;;;;;;23.74;46.76;100503.94;5314533;27;32173;-86
2023/08/11 07:16:38;;;;;;;0.17;0.17;;;;;;;24.05;42.28;100501.22;5296134;27;33408;-86
2023/08/11 07:19:06;;;;;;;0.37;0.35;;;;;;;23.64;44.62;100504.87;5313722;27;35919;-85
2023/08/11 07:21:33;;;;;;;0.47;0.47;;;;;;;24.15;44.06;100496.72;5296458;27;33312;-86
2023/08/11 07:24:02;;;;;;;0.13;0.10;;;;;;;24.21;44.31;100496.19;5314899;27;33565;-86
2023/08/11 07:26:30;;;;;;;0.30;0.30;;;;;;;24.13;44.81;100504.09;5278087;27;32351;-87
2023/08/11 07:28:57;;;;;;;0.10;0.10;;;;;;;24.13;45.08;100509.50;5276738;27;32877;-86
2023/08/11 07:31:26;;;;;;;0.32;0.30;;;;;;;24.20;45.30;100499.84;5278528;27;34247;-87
2023/08/11 07:33:53;;;;;;;0.40;0.25;;;;;;;24.52;44.80;100499.66;5259958;27;33206;-87
2023/08/11 07:36:21;;;;;;;0.77;0.50;;;;;;;24.62;43.86;100499.69;5314374;27;32531;-86
2023/08/11 07:38:49;;;;;;;0.28;0.10;;;;;;;24.97;42.70;100504.56;5277917;27;34639;-86
2023/08/11 07:41:17;;;;;;;0.50;0.50;;;;;;;25.08;42.93;100491.91;5278387;27;32969;-87
2023/08/11 07:43:49;;;;;;;1.15;0.80;;;;;;;25.10;43.03;100498.88;5296666;27;32133;-86
2023/08/11 07:46:17;;;;;;;0.10;0.10;;;;;;;25.37;42.86;100497.28;5278223;27;33517;-86
2023/08/11 07:48:44;;;;;;;0.10;0.10;;;;;;;25.34;42.92;100500.25;5314909;27;34020;-86
2023/08/11 07:51:14;;;;;;;0.40;0.30;;;;;;;25.48;43.50;100497.09;5296097;27;33269;-86
2023/08/11 07:53:44;;;;;;;0.30;0.30;;;;;;;25.65;42.56;100504.47;5278163;27;33173;-87
2023/08/11 07:56:12;;;;;;;0.45;0.30;;;;;;;25.91;42.40;100501.97;5296780;27;34718;-87
2023/08/11 07:58:40;;;;;;;0.20;0.20;;;;;;;25.96;43.46;100509.62;5278191;27;35048;-86
2023/08/11 08:01:10;;;;;;;0.10;0.10;;;;;;;26.01;41.17;100505.47;5242884;27;32779;-86
2023/08/11 08:03:40;;;;;;;0.85;0.73;;;;;;;26.02;42.16;100511.78;5279300;27;33015;-86
2023/08/11 08:06:09;;;;;;;0.13;0.13;;;;;;;26.07;40.84;100504.06;5261149;27;32478;-87
2023/08/11 08:08:36;;;;;;;0.32;0.25;;;;;;;26.26;41.18;100503.09;5315550;27;33568;-87
2023/08/11 08:11:04;;;;;;;0.62;0.37;;;;;;;26.22;42.21;100499.00;5278932;27;32614;-86
2023/08/11 08:13:32;;;;;;;0.20;0.20;;;;;;;26.03;41.58;100508.06;5315289;27;33824;-86
2023/08/11 08:15:59;;;;;;;0.37;0.32;;;;;;;26.43;41.87;100509.56;5278229;27;32460;-86
2023/08/11 08:18:27;;;;;;;0.85;0.68;;;;;;;26.34;41.38;100510.44;5296592;27;33333;-86
2023/08/11 08:20:55;;;;;;;1.52;0.80;;;;;;;26.41;40.93;100511.56;5277756;27;32655;-86
2023/08/11 08:23:23;;;;;;;0.45;0.25;;;;;;;26.45;40.23;100518.41;5278637;27;34169;-86
2023/08/11 08:25:51;;;;;;;0.47;0.47;;;;;;;26.21;40.16;100514.38;5314642;27;32567;-86
2023/08/11 08:28:20;;;;;;;0.15;0.15;;;;;;;26.39;41.92;100518.97;5278274;27;33177;-87
2023/08/11 08:30:48;;;;;;;0.30;0.30;;;;;;;26.35;40.09;100517.56;5314817;27;34873;-86
2023/08/11 08:33:16;;;;;;;0.43;0.40;;;;;;;26.14;40.29;100505.16;5277994;27;32632;-86
2023/08/11 08:35:44;;;;;;;0.13;0.13;;;;;;;26.44;41.46;100506.69;5279231;27;33971;-86
2023/08/11 08:38:11;;;;;;;0.52;0.45;;;;;;;26.65;41.09;100509.16;5276660;27;32214;-87
2023/08/11 08:40:39;;;;;;;0.37;0.28;;;;;;;26.75;40.34;100507.22;5278363;27;33545;-87
2023/08/11 08:43:08;;;;;;;0.25;0.25;;;;;;;27.04;39.71;100514.25;5296173;27;32201;-87
2023/08/11 08:45:37;;;;;;;0.75;0.50;;;;;;;26.90;40.22;100510.22;5313078;27;33171;-86
2023/08/11 08:48:09;;;;;;;0.03;0.00;;;;;;;26.59;40.43;100508.88;5277490;27;33948;-87
2023/08/11 08:50:38;;;;;;;1.25;0.70;;;;;;;26.33;40.44;100503.34;5314268;27;33052;-87
2023/08/11 08:53:06;;;;;;;0.62;0.62;;;;;;;26.49;40.36;100514.38;5278449;27;34242;-87
2023/08/11 08:55:33;;;;;;;0.10;0.10;;;;;;;26.93;40.14;100517.22;5296539;27;32650;-87
2023/08/11 08:58:01;;;;;;;0.47;0.47;;;;;;;26.69;40.88;100515.97;5295964;27;33500;-87
2023/08/11 09:00:30;;;;;;;0.65;0.65;;;;;;;26.76;40.61;100508.91;5313394;27;34202;-87
2023/08/11 09:03:00;;;;;;;0.62;0.30;;;;;;;26.80;40.48;100507.59;5278084;27;33381;-87
2023/08/11 09:05:27;;;;;;;;;;;;;;;26.62;40.41;100509.44;5278813;27;34111;-87
2023/08/11 09:07:55;;;;;;;;;;;;;;;27.25;41.35;100509.41;5278930;27;33894;-86
2023/08/11 09:10:24;;;;;;;0.10;0.10;;;;;;;27.80;38.91;100500.12;5292785;27;105836;-86
2023/08/11 09:12:52;;;;;;;0.45;0.45;;;;;;;27.24;38.38;100507.66;5261029;27;32425;-87
2023/08/11 09:15:21;;;;;;;0.62;0.62;;;;;;;26.89;40.32;100510.41;5314918;27;33917;-87
2023/08/11 09:17:50;;;;;;;0.13;0.13;;;;;;;26.92;40.39;100505.53;5313963;27;32625;-88
2023/08/11 09:20:19;;;;;;;0.20;0.20;;;;;;;27.54;38.72;100511.81;5295715;27;33927;-87
2023/08/11 09:22:49;;;;;;;0.90;0.60;;;;;;;26.78;38.96;100515.03;5296194;27;33517;-87
2023/08/11 09:25:16;;;;;;;0.73;0.73;;;;;;;27.43;39.04;100508.50;5279029;27;33960;-88
2023/08/11 09:27:49;;;;;;;0.20;0.20;;;;;;;27.25;38.95;100501.25;5314894;27;34717;-86
2023/08/11 09:30:17;;;;;;;0.43;0.40;;;;;;;28.23;36.86;100499.13;5296985;27;32944;-86
2023/08/11 09:32:49;;;;;;;0.95;0.57;;;;;;;28.06;36.87;100502.81;5278724;27;32521;-87
2023/08/11 09:35:23;;;;;;;0.20;0.20;;;;;;;27.34;39.48;100504.00;5315459;27;32627;-88
2023/08/11 09:37:53;;;;;;;0.10;0.08;;;;;;;27.54;38.63;100500.09;5314804;27;34911;-87
2023/08/11 09:40:21;;;;;;;0.13;0.10;;;;;;;27.69;38.49;100506.62;5296752;27;34092;-87
2023/08/11 09:42:55;;;;;;;0.32;0.28;;;;;;;27.91;37.03;100497.09;5241590;27;34713;-88
2023/08/11 09:45:23;;;;;;;0.22;0.22;;;;;;;27.93;38.00;100497.81;5278794;27;33133;-87
2023/08/11 09:47:51;;;;;;;0.10;0.10;;;;;;;28.50;37.80;100483.63;5279461;27;34523;-87
2023/08/11 09:50:20;;;;;;;0.00;0.00;;;;;;;28.40;37.21;100491.06;5315166;27;34228;-87
2023/08/11 09:52:48;;;;;;;0.03;0.03;;;;;;;28.29;36.22;100482.16;5279253;27;32914;-87
2023/08/11 09:55:16;;;;;;;1.08;0.80;;;;;;;28.52;34.66;100485.13;5315615;27;33229;-87
2023/08/11 09:57:44;;;;;;;0.37;0.35;;;;;;;28.63;34.87;100493.97;5279378;27;33026;-89
2023/08/11 10:00:12;;;;;;;0.20;0.20;;;;;;;28.11;35.52;100488.72;5279087;27;34235;-88
2023/08/11 10:02:46;;;;;;;0.30;0.30;;;;;;;27.73;37.29;100497.22;5297516;27;31935;-88
2023/08/11 10:05:15;;;;;;;0.52;0.52;;;;;;;27.82;36.68;100492.66;5314863;27;34403;-88
2023/08/11 10:07:44;;;;;;;0.73;0.73;;;;;;;27.83;36.88;100485.38;5278719;27;34811;-88
2023/08/11 10:10:14;;;;;;;0.10;0.10;;;;;;;27.80;36.42;100495.53;5295574;27;32617;-89
2023/08/11 10:12:48;;;;;;;0.15;0.13;;;;;;;27.70;36.96;100494.78;5279205;27;33345;-87
2023/08/11 10:15:20;;;;;;;0.20;0.13;;;;;;;27.40;37.85;100493.41;5296928;27;34838;-88
2023/08/11 10:17:48;;;;;;;0.90;0.37;;;;;;;27.66;38.03;100493.38;5279317;27;33352;-88
2023/08/11 10:20:16;;;;;;;0.17;0.17;;;;;;;27.87;37.47;100484.03;5260804;27;33302;-87
2023/08/11 10:22:44;;;;;;;0.10;0.10;;;;;;;27.45;37.60;100484.78;5297476;27;34038;-88
2023/08/11 10:25:15;;;;;;;0.32;0.32;;;;;;;27.76;35.93;100480.56;5296150;27;32545;-88
2023/08/11 10:27:49;;;;;;;4.28;0.45;;;;;;;27.71;36.72;100485.66;5292927;27;32641;-88
2023/08/11 10:30:18;;;;;;;0.05;0.05;;;;;;;27.25;37.61;100478.69;5295782;27;33960;-87
2023/08/11 10:32:45;;;;;;;1.25;0.45;;;;;;;26.85;38.65;100479.19;5279303;27;31889;-87
2023/08/11 10:35:25;;;;;;;0.10;0.10;;;;;;;27.28;36.82;100483.81;5296960;27;33585;-87
2023/08/11 10:37:56;;;;;;;0.45;0.37;;;;;;;27.23;37.37;100491.56;5314942;27;34469;-87
2023/08/11 10:40:33;;;;;;;0.30;0.20;;;;;;;27.62;35.55;100481.16;5293837;27;32964;-86
2023/08/11 10:43:03;;;;;;;0.22;0.13;;;;;;;27.87;35.96;100478.59;5261250;27;32563;-87
2023/08/11 10:45:32;;;;;;;1.55;0.20;;;;;;;27.77;34.81;100467.84;5314990;27;33208;-87
2023/08/11 10:48:08;;;;;;;0.03;0.03;;;;;;;28.10;35.37;100468.84;5298494;27;33957;-87
2023/08/11 10:50:37;;;;;;;0.00;0.00;;;;;;;28.40;35.49;100467.47;5308771;27;33905;-86
2023/08/11 10:53:07;;;;;;;0.50;0.10;;;;;;;28.47;36.01;100464.94;5278810;27;32025;-87
2023/08/11 10:55:35;;;;;;;0.30;0.28;;;;;;;28.44;34.42;100459.81;5272741;27;33123;-87
2023/08/11 10:58:11;;;;;;;0.10;0.10;;;;;;;28.58;35.01;100462.75;5256577;27;33307;-87
2023/08/11 11:00:40;;;;;;;0.15;0.15;;;;;;;28.94;33.72;100472.47;5315780;27;32883;-87
2023/08/11 11:03:09;;;;;;;0.32;0.32;;;;;;;28.81;35.65;100462.06;5256382;27;33979;-87
2023/08/11 11:05:36;;;;;;;0.30;0.30;;;;;;;28.56;35.41;100462.06;5279079;27;32734;-88
2023/08/11 11:08:04;;;;;;;0.35;0.30;;;;;;;29.28;33.91;100464.13;5278901;27;33339;-87
2023/08/11 11:10:32;;;;;;;0.20;0.20;;;;;;;29.45;34.31;100459.53;5296787;27;34244;-87
2023/08/11 11:13:17;;;;;;;0.00;0.00;;;;;;;29.95;31.70;100453.75;5294505;27;32655;-87
2023/08/11 11:15:45;;;;;;;0.25;0.25;;;;;;;29.47;33.04;100454.75;5261188;27;34229;-87
2023/08/11 11:18:12;;;;;;;4.37;2.10;;;;;;;29.32;33.22;100444.56;5296832;27;33709;-87
2023/08/11 11:20:40;;;;;;;0.10;0.10;;;;;;;29.01;32.63;100451.78;5315449;27;32587;-87
2023/08/11 11:23:08;;;;;;;0.85;0.55;;;;;;;29.24;31.07;100452.75;5278901;27;32165;-87
2023/08/11 11:25:35;;;;;;;0.40;0.40;;;;;;;28.84;33.08;100457.16;5278961;27;33827;-88
2023/08/11 11:28:03;;;;;;;0.20;0.20;;;;;;;29.03;34.15;100449.72;5277186;27;33432;-87
2023/08/11 11:30:32;;;;;;;1.10;0.22;;;;;;;28.89;33.13;100451.22;5296528;27;33567;-88
2023/08/11 11:32:59;;;;;;;0.50;0.50;;;;;;;28.91;33.85;100453.75;5278729;27;32769;-87
2023/08/11 11:35:31;;;;;;;0.22;0.22;;;;;;;28.70;33.60;100456.97;5315341;27;33082;-86